sensor_id;sensor_type;location;lat;lon;timestamp;P1;durP1;ratioP1;P2;durP2;ratioP2
12869;SDS011;6503;48.572;13.460;2023-02-28T00:00:00;8.07;;;4.85;;
12869;SDS011;6503;48.572;13.460;2023-02-28T00:02:33;10.40;;;5.80;;
12869;SDS011;6503;48.572;13.460;2023-02-28T00:05:00;7.82;;;5.63;;
12869;SDS011;6503;48.572;13.460;2023-02-28T00:07:29;8.00;;;4.97;;
12869;SDS011;6503;48.572;13.460;2023-02-28T00:09:57;9.10;;;5.57;;
12869;SDS011;6503;48.572;13.460;2023-02-28T00:12:25;8.13;;;4.85;;
12869;SDS011;6503;48.572;13.460;2023-02-28T00:14:53;10.18;;;5.63;;
12869;SDS011;6503;48.572;13.460;2023-02-28T00:17:20;7.47;;;5.40;;
12869;SDS011;6503;48.572;13.460;2023-02-28T00:19:47;9.25;;;5.03;;
12869;SDS011;6503;48.572;13.460;2023-02-28T00:22:16;8.90;;;5.73;;
12869;SDS011;6503;48.572;13.460;2023-02-28T00:24:46;9.07;;;5.38;;
12869;SDS011;6503;48.572;13.460;2023-02-28T00:27:13;9.27;;;6.32;;
12869;SDS011;6503;48.572;13.460;2023-02-28T00:29:46;10.60;;;5.65;;
12869;SDS011;6503;48.572;13.460;2023-02-28T00:32:14;8.02;;;5.32;;
12869;SDS011;6503;48.572;13.460;2023-02-28T00:34:45;10.85;;;6.82;;
12869;SDS011;6503;48.572;13.460;2023-02-28T00:37:13;11.07;;;6.13;;
12869;SDS011;6503;48.572;13.460;2023-02-28T00:39:40;7.53;;;5.50;;
12869;SDS011;6503;48.572;13.460;2023-02-28T00:42:09;7.88;;;6.00;;
12869;SDS011;6503;48.572;13.460;2023-02-28T00:44:36;8.35;;;5.53;;
12869;SDS011;6503;48.572;13.460;2023-02-28T00:47:03;9.88;;;5.70;;
12869;SDS011;6503;48.572;13.460;2023-02-28T00:49:30;8.57;;;6.00;;
12869;SDS011;6503;48.572;13.460;2023-02-28T00:51:57;11.23;;;6.30;;
12869;SDS011;6503;48.572;13.460;2023-02-28T00:54:25;9.68;;;6.05;;
12869;SDS011;6503;48.572;13.460;2023-02-28T00:56:52;10.57;;;6.55;;
12869;SDS011;6503;48.572;13.460;2023-02-28T00:59:21;10.88;;;6.18;;
12869;SDS011;6503;48.572;13.460;2023-02-28T01:01:48;9.77;;;6.57;;
12869;SDS011;6503;48.572;13.460;2023-02-28T01:04:15;9.30;;;5.97;;
12869;SDS011;6503;48.572;13.460;2023-02-28T01:06:42;10.63;;;5.88;;
12869;SDS011;6503;48.572;13.460;2023-02-28T01:09:10;10.15;;;6.75;;
12869;SDS011;6503;48.572;13.460;2023-02-28T01:11:37;10.25;;;6.72;;
12869;SDS011;6503;48.572;13.460;2023-02-28T01:14:06;12.52;;;6.00;;
12869;SDS011;6503;48.572;13.460;2023-02-28T01:16:36;14.40;;;8.50;;
12869;SDS011;6503;48.572;13.460;2023-02-28T01:19:03;13.73;;;7.30;;
12869;SDS011;6503;48.572;13.460;2023-02-28T01:21:31;12.82;;;6.57;;
12869;SDS011;6503;48.572;13.460;2023-02-28T01:24:00;11.20;;;6.75;;
12869;SDS011;6503;48.572;13.460;2023-02-28T01:26:28;10.75;;;6.70;;
12869;SDS011;6503;48.572;13.460;2023-02-28T01:28:55;9.68;;;6.20;;
12869;SDS011;6503;48.572;13.460;2023-02-28T01:31:23;10.63;;;6.75;;
12869;SDS011;6503;48.572;13.460;2023-02-28T01:33:52;11.27;;;6.93;;
12869;SDS011;6503;48.572;13.460;2023-02-28T01:36:21;10.02;;;6.80;;
12869;SDS011;6503;48.572;13.460;2023-02-28T01:38:50;8.73;;;6.55;;
12869;SDS011;6503;48.572;13.460;2023-02-28T01:41:18;10.60;;;6.22;;
12869;SDS011;6503;48.572;13.460;2023-02-28T01:44:01;9.57;;;6.43;;
12869;SDS011;6503;48.572;13.460;2023-02-28T01:46:31;11.65;;;6.65;;
12869;SDS011;6503;48.572;13.460;2023-02-28T01:49:03;13.05;;;6.28;;
12869;SDS011;6503;48.572;13.460;2023-02-28T01:51:37;10.32;;;6.85;;
12869;SDS011;6503;48.572;13.460;2023-02-28T01:54:11;10.90;;;5.70;;
12869;SDS011;6503;48.572;13.460;2023-02-28T01:56:43;10.55;;;6.10;;
12869;SDS011;6503;48.572;13.460;2023-02-28T01:59:14;10.40;;;6.13;;
12869;SDS011;6503;48.572;13.460;2023-02-28T02:01:48;11.13;;;6.30;;
12869;SDS011;6503;48.572;13.460;2023-02-28T02:04:17;9.85;;;5.93;;
12869;SDS011;6503;48.572;13.460;2023-02-28T02:06:45;10.88;;;6.63;;
12869;SDS011;6503;48.572;13.460;2023-02-28T02:09:14;11.25;;;6.30;;
12869;SDS011;6503;48.572;13.460;2023-02-28T02:11:42;9.55;;;5.93;;
12869;SDS011;6503;48.572;13.460;2023-02-28T02:14:12;9.15;;;6.30;;
12869;SDS011;6503;48.572;13.460;2023-02-28T02:17:15;9.73;;;5.82;;
12869;SDS011;6503;48.572;13.460;2023-02-28T02:25:50;10.90;;;6.28;;
12869;SDS011;6503;48.572;13.460;2023-02-28T02:28:36;13.57;;;6.10;;
12869;SDS011;6503;48.572;13.460;2023-02-28T02:34:40;10.40;;;5.50;;
12869;SDS011;6503;48.572;13.460;2023-02-28T02:37:24;10.02;;;6.53;;
12869;SDS011;6503;48.572;13.460;2023-02-28T02:39:58;9.32;;;5.60;;
12869;SDS011;6503;48.572;13.460;2023-02-28T02:42:31;12.20;;;6.50;;
12869;SDS011;6503;48.572;13.460;2023-02-28T02:45:08;13.85;;;7.60;;
12869;SDS011;6503;48.572;13.460;2023-02-28T02:47:39;12.18;;;7.60;;
12869;SDS011;6503;48.572;13.460;2023-02-28T02:50:11;10.32;;;6.78;;
12869;SDS011;6503;48.572;13.460;2023-02-28T02:52:42;11.40;;;6.32;;
12869;SDS011;6503;48.572;13.460;2023-02-28T02:55:13;12.20;;;7.13;;
12869;SDS011;6503;48.572;13.460;2023-02-28T02:57:44;10.90;;;7.20;;
12869;SDS011;6503;48.572;13.460;2023-02-28T03:00:15;12.27;;;6.50;;
12869;SDS011;6503;48.572;13.460;2023-02-28T03:02:45;10.13;;;6.32;;
12869;SDS011;6503;48.572;13.460;2023-02-28T03:05:17;11.50;;;6.50;;
12869;SDS011;6503;48.572;13.460;2023-02-28T03:07:47;9.75;;;6.25;;
12869;SDS011;6503;48.572;13.460;2023-02-28T03:10:26;12.52;;;6.53;;
12869;SDS011;6503;48.572;13.460;2023-02-28T03:13:22;12.38;;;7.07;;
12869;SDS011;6503;48.572;13.460;2023-02-28T03:16:08;12.32;;;6.57;;
12869;SDS011;6503;48.572;13.460;2023-02-28T03:18:48;11.82;;;7.07;;
12869;SDS011;6503;48.572;13.460;2023-02-28T03:21:28;14.82;;;7.22;;
12869;SDS011;6503;48.572;13.460;2023-02-28T03:24:03;13.55;;;7.18;;
12869;SDS011;6503;48.572;13.460;2023-02-28T03:26:32;10.57;;;6.47;;
12869;SDS011;6503;48.572;13.460;2023-02-28T03:29:08;10.90;;;7.47;;
12869;SDS011;6503;48.572;13.460;2023-02-28T03:31:44;11.50;;;7.20;;
12869;SDS011;6503;48.572;13.460;2023-02-28T03:34:16;10.80;;;6.40;;
12869;SDS011;6503;48.572;13.460;2023-02-28T03:36:51;13.02;;;6.63;;
12869;SDS011;6503;48.572;13.460;2023-02-28T03:39:21;13.20;;;7.10;;
12869;SDS011;6503;48.572;13.460;2023-02-28T03:41:56;12.05;;;6.32;;
12869;SDS011;6503;48.572;13.460;2023-02-28T03:44:27;12.35;;;7.10;;
12869;SDS011;6503;48.572;13.460;2023-02-28T03:47:02;11.80;;;6.97;;
12869;SDS011;6503;48.572;13.460;2023-02-28T03:49:35;11.60;;;6.60;;
12869;SDS011;6503;48.572;13.460;2023-02-28T03:52:09;11.38;;;6.78;;
12869;SDS011;6503;48.572;13.460;2023-02-28T03:54:38;11.43;;;6.43;;
12869;SDS011;6503;48.572;13.460;2023-02-28T03:57:11;16.58;;;6.97;;
12869;SDS011;6503;48.572;13.460;2023-02-28T03:59:46;12.70;;;6.70;;
12869;SDS011;6503;48.572;13.460;2023-02-28T04:02:16;13.73;;;7.25;;
12869;SDS011;6503;48.572;13.460;2023-02-28T04:04:43;14.80;;;6.70;;
12869;SDS011;6503;48.572;13.460;2023-02-28T04:07:15;9.93;;;5.78;;
12869;SDS011;6503;48.572;13.460;2023-02-28T04:09:42;11.32;;;6.43;;
12869;SDS011;6503;48.572;13.460;2023-02-28T04:12:10;15.52;;;7.13;;
12869;SDS011;6503;48.572;13.460;2023-02-28T04:14:37;13.25;;;7.10;;
12869;SDS011;6503;48.572;13.460;2023-02-28T04:17:05;15.63;;;6.72;;
12869;SDS011;6503;48.572;13.460;2023-02-28T04:19:32;11.18;;;6.57;;
12869;SDS011;6503;48.572;13.460;2023-02-28T04:21:59;11.00;;;6.32;;
12869;SDS011;6503;48.572;13.460;2023-02-28T04:24:28;14.82;;;7.47;;
12869;SDS011;6503;48.572;13.460;2023-02-28T04:26:58;15.48;;;7.18;;
12869;SDS011;6503;48.572;13.460;2023-02-28T04:29:30;12.50;;;7.20;;
12869;SDS011;6503;48.572;13.460;2023-02-28T04:31:58;17.10;;;7.90;;
12869;SDS011;6503;48.572;13.460;2023-02-28T04:34:27;12.65;;;7.38;;
12869;SDS011;6503;48.572;13.460;2023-02-28T04:36:54;12.32;;;7.35;;
12869;SDS011;6503;48.572;13.460;2023-02-28T04:39:22;13.40;;;7.72;;
12869;SDS011;6503;48.572;13.460;2023-02-28T04:41:51;12.88;;;7.38;;
12869;SDS011;6503;48.572;13.460;2023-02-28T04:44:20;12.90;;;7.82;;
12869;SDS011;6503;48.572;13.460;2023-02-28T04:46:48;12.45;;;7.90;;
12869;SDS011;6503;48.572;13.460;2023-02-28T04:49:15;14.82;;;7.90;;
12869;SDS011;6503;48.572;13.460;2023-02-28T04:51:43;14.07;;;7.63;;
12869;SDS011;6503;48.572;13.460;2023-02-28T04:54:11;12.57;;;7.03;;
12869;SDS011;6503;48.572;13.460;2023-02-28T04:56:38;14.68;;;7.60;;
12869;SDS011;6503;48.572;13.460;2023-02-28T04:59:07;12.98;;;7.18;;
12869;SDS011;6503;48.572;13.460;2023-02-28T05:01:34;13.38;;;7.18;;
12869;SDS011;6503;48.572;13.460;2023-02-28T05:04:02;12.15;;;7.38;;
12869;SDS011;6503;48.572;13.460;2023-02-28T05:06:31;11.05;;;6.15;;
12869;SDS011;6503;48.572;13.460;2023-02-28T05:08:59;13.98;;;7.15;;
12869;SDS011;6503;48.572;13.460;2023-02-28T05:11:28;13.27;;;7.82;;
12869;SDS011;6503;48.572;13.460;2023-02-28T05:14:00;13.23;;;7.25;;
12869;SDS011;6503;48.572;13.460;2023-02-28T05:16:32;12.45;;;7.18;;
12869;SDS011;6503;48.572;13.460;2023-02-28T05:18:59;11.95;;;6.95;;
12869;SDS011;6503;48.572;13.460;2023-02-28T05:21:27;14.00;;;8.07;;
12869;SDS011;6503;48.572;13.460;2023-02-28T05:24:03;15.98;;;8.13;;
12869;SDS011;6503;48.572;13.460;2023-02-28T05:26:33;11.93;;;7.57;;
12869;SDS011;6503;48.572;13.460;2023-02-28T05:29:01;15.55;;;11.00;;
12869;SDS011;6503;48.572;13.460;2023-02-28T05:31:30;14.43;;;8.20;;
12869;SDS011;6503;48.572;13.460;2023-02-28T05:36:25;14.68;;;8.07;;
12869;SDS011;6503;48.572;13.460;2023-02-28T05:38:53;14.18;;;7.60;;
12869;SDS011;6503;48.572;13.460;2023-02-28T05:41:20;15.65;;;7.60;;
12869;SDS011;6503;48.572;13.460;2023-02-28T05:43:48;14.05;;;7.65;;
12869;SDS011;6503;48.572;13.460;2023-02-28T05:46:15;14.07;;;8.38;;
12869;SDS011;6503;48.572;13.460;2023-02-28T05:48:45;13.77;;;7.70;;
12869;SDS011;6503;48.572;13.460;2023-02-28T05:51:13;11.52;;;6.70;;
12869;SDS011;6503;48.572;13.460;2023-02-28T05:53:40;15.00;;;7.80;;
12869;SDS011;6503;48.572;13.460;2023-02-28T05:56:08;13.57;;;6.80;;
12869;SDS011;6503;48.572;13.460;2023-02-28T05:58:35;14.00;;;7.50;;
12869;SDS011;6503;48.572;13.460;2023-02-28T06:03:58;14.57;;;7.20;;
12869;SDS011;6503;48.572;13.460;2023-02-28T06:06:26;11.45;;;7.45;;
12869;SDS011;6503;48.572;13.460;2023-02-28T06:08:54;16.30;;;7.80;;
12869;SDS011;6503;48.572;13.460;2023-02-28T06:11:22;13.00;;;7.72;;
12869;SDS011;6503;48.572;13.460;2023-02-28T06:13:52;14.98;;;7.68;;
12869;SDS011;6503;48.572;13.460;2023-02-28T06:16:21;17.13;;;8.02;;
12869;SDS011;6503;48.572;13.460;2023-02-28T06:18:49;14.05;;;7.65;;
12869;SDS011;6503;48.572;13.460;2023-02-28T06:21:19;15.18;;;7.32;;
12869;SDS011;6503;48.572;13.460;2023-02-28T06:23:46;11.10;;;7.25;;
12869;SDS011;6503;48.572;13.460;2023-02-28T06:26:16;12.10;;;7.07;;
12869;SDS011;6503;48.572;13.460;2023-02-28T06:28:43;15.52;;;7.10;;
12869;SDS011;6503;48.572;13.460;2023-02-28T06:31:11;13.55;;;7.60;;
12869;SDS011;6503;48.572;13.460;2023-02-28T06:33:41;14.25;;;8.13;;
12869;SDS011;6503;48.572;13.460;2023-02-28T06:36:10;10.75;;;6.65;;
12869;SDS011;6503;48.572;13.460;2023-02-28T06:38:41;14.03;;;7.07;;
12869;SDS011;6503;48.572;13.460;2023-02-28T06:41:10;14.80;;;7.18;;
12869;SDS011;6503;48.572;13.460;2023-02-28T06:43:39;18.60;;;8.15;;
12869;SDS011;6503;48.572;13.460;2023-02-28T06:46:10;13.95;;;7.60;;
12869;SDS011;6503;48.572;13.460;2023-02-28T06:48:40;13.35;;;7.78;;
12869;SDS011;6503;48.572;13.460;2023-02-28T06:51:10;17.40;;;7.90;;
12869;SDS011;6503;48.572;13.460;2023-02-28T06:56:13;13.10;;;7.47;;
12869;SDS011;6503;48.572;13.460;2023-02-28T06:58:45;11.82;;;8.23;;
12869;SDS011;6503;48.572;13.460;2023-02-28T07:01:13;14.10;;;7.47;;
12869;SDS011;6503;48.572;13.460;2023-02-28T07:03:42;13.20;;;6.65;;
12869;SDS011;6503;48.572;13.460;2023-02-28T07:06:18;13.85;;;7.05;;
12869;SDS011;6503;48.572;13.460;2023-02-28T07:08:52;12.93;;;7.03;;
12869;SDS011;6503;48.572;13.460;2023-02-28T07:11:22;14.63;;;8.18;;
12869;SDS011;6503;48.572;13.460;2023-02-28T07:13:53;16.80;;;7.32;;
12869;SDS011;6503;48.572;13.460;2023-02-28T07:16:22;20.48;;;8.13;;
12869;SDS011;6503;48.572;13.460;2023-02-28T07:18:52;13.38;;;7.80;;
12869;SDS011;6503;48.572;13.460;2023-02-28T07:21:22;17.17;;;9.40;;
12869;SDS011;6503;48.572;13.460;2023-02-28T07:23:55;16.58;;;7.82;;
12869;SDS011;6503;48.572;13.460;2023-02-28T07:26:26;16.55;;;8.80;;
12869;SDS011;6503;48.572;13.460;2023-02-28T07:29:47;12.85;;;7.47;;
12869;SDS011;6503;48.572;13.460;2023-02-28T07:32:20;17.13;;;8.35;;
12869;SDS011;6503;48.572;13.460;2023-02-28T07:34:53;14.23;;;7.40;;
12869;SDS011;6503;48.572;13.460;2023-02-28T07:37:22;12.63;;;7.73;;
12869;SDS011;6503;48.572;13.460;2023-02-28T07:39:51;12.80;;;7.38;;
12869;SDS011;6503;48.572;13.460;2023-02-28T07:42:18;12.32;;;6.93;;
12869;SDS011;6503;48.572;13.460;2023-02-28T07:44:46;14.70;;;7.90;;
12869;SDS011;6503;48.572;13.460;2023-02-28T07:47:14;17.85;;;7.72;;
12869;SDS011;6503;48.572;13.460;2023-02-28T07:49:41;14.70;;;8.75;;
12869;SDS011;6503;48.572;13.460;2023-02-28T07:52:08;17.25;;;8.20;;
12869;SDS011;6503;48.572;13.460;2023-02-28T07:54:35;13.35;;;7.80;;
12869;SDS011;6503;48.572;13.460;2023-02-28T07:57:05;11.93;;;7.47;;
12869;SDS011;6503;48.572;13.460;2023-02-28T07:59:32;14.05;;;7.97;;
12869;SDS011;6503;48.572;13.460;2023-02-28T08:01:59;13.18;;;7.90;;
12869;SDS011;6503;48.572;13.460;2023-02-28T08:04:27;19.88;;;8.43;;
12869;SDS011;6503;48.572;13.460;2023-02-28T08:06:57;16.75;;;8.07;;
12869;SDS011;6503;48.572;13.460;2023-02-28T08:09:24;14.05;;;7.72;;
12869;SDS011;6503;48.572;13.460;2023-02-28T08:11:52;13.13;;;8.18;;
12869;SDS011;6503;48.572;13.460;2023-02-28T08:14:27;12.25;;;7.75;;
12869;SDS011;6503;48.572;13.460;2023-02-28T08:16:54;14.60;;;7.45;;
12869;SDS011;6503;48.572;13.460;2023-02-28T08:19:21;13.52;;;7.50;;
12869;SDS011;6503;48.572;13.460;2023-02-28T08:21:52;14.43;;;7.63;;
12869;SDS011;6503;48.572;13.460;2023-02-28T08:24:27;13.65;;;7.63;;
12869;SDS011;6503;48.572;13.460;2023-02-28T08:26:54;13.90;;;7.43;;
12869;SDS011;6503;48.572;13.460;2023-02-28T08:29:21;16.00;;;7.78;;
12869;SDS011;6503;48.572;13.460;2023-02-28T08:31:51;12.70;;;7.90;;
12869;SDS011;6503;48.572;13.460;2023-02-28T08:34:18;16.55;;;7.82;;
12869;SDS011;6503;48.572;13.460;2023-02-28T08:36:48;13.73;;;7.50;;
12869;SDS011;6503;48.572;13.460;2023-02-28T08:39:19;13.07;;;7.68;;
12869;SDS011;6503;48.572;13.460;2023-02-28T08:41:46;14.00;;;7.70;;
12869;SDS011;6503;48.572;13.460;2023-02-28T08:46:43;13.48;;;7.32;;
12869;SDS011;6503;48.572;13.460;2023-02-28T08:49:13;13.07;;;7.53;;
12869;SDS011;6503;48.572;13.460;2023-02-28T08:51:41;12.10;;;7.30;;
12869;SDS011;6503;48.572;13.460;2023-02-28T08:54:11;12.07;;;7.28;;
12869;SDS011;6503;48.572;13.460;2023-02-28T08:56:44;10.98;;;7.45;;
12869;SDS011;6503;48.572;13.460;2023-02-28T08:59:12;13.35;;;8.10;;
12869;SDS011;6503;48.572;13.460;2023-02-28T09:01:43;12.98;;;7.78;;
12869;SDS011;6503;48.572;13.460;2023-02-28T09:04:10;12.55;;;6.88;;
12869;SDS011;6503;48.572;13.460;2023-02-28T09:10:27;18.92;;;8.70;;
12869;SDS011;6503;48.572;13.460;2023-02-28T09:12:56;12.43;;;7.35;;
12869;SDS011;6503;48.572;13.460;2023-02-28T09:15:23;11.90;;;7.47;;
12869;SDS011;6503;48.572;13.460;2023-02-28T09:17:51;11.38;;;7.57;;
12869;SDS011;6503;48.572;13.460;2023-02-28T09:20:20;13.00;;;8.20;;
12869;SDS011;6503;48.572;13.460;2023-02-28T09:22:48;14.80;;;8.00;;
12869;SDS011;6503;48.572;13.460;2023-02-28T09:25:19;14.23;;;7.68;;
12869;SDS011;6503;48.572;13.460;2023-02-28T09:27:59;13.73;;;8.13;;
12869;SDS011;6503;48.572;13.460;2023-02-28T09:32:57;13.95;;;8.05;;
12869;SDS011;6503;48.572;13.460;2023-02-28T09:35:25;17.00;;;8.13;;
12869;SDS011;6503;48.572;13.460;2023-02-28T09:37:55;14.70;;;8.82;;
12869;SDS011;6503;48.572;13.460;2023-02-28T09:40:29;14.88;;;8.82;;
12869;SDS011;6503;48.572;13.460;2023-02-28T09:43:03;16.20;;;8.98;;
12869;SDS011;6503;48.572;13.460;2023-02-28T09:45:35;13.98;;;8.90;;
12869;SDS011;6503;48.572;13.460;2023-02-28T09:48:07;13.23;;;8.40;;
12869;SDS011;6503;48.572;13.460;2023-02-28T09:50:40;14.68;;;9.20;;
12869;SDS011;6503;48.572;13.460;2023-02-28T09:53:19;19.48;;;9.95;;
12869;SDS011;6503;48.572;13.460;2023-02-28T09:55:55;14.10;;;8.38;;
12869;SDS011;6503;48.572;13.460;2023-02-28T09:58:53;14.43;;;8.55;;
12869;SDS011;6503;48.572;13.460;2023-02-28T10:01:27;19.20;;;9.65;;
12869;SDS011;6503;48.572;13.460;2023-02-28T10:04:41;15.75;;;8.55;;
12869;SDS011;6503;48.572;13.460;2023-02-28T10:07:18;16.10;;;8.73;;
12869;SDS011;6503;48.572;13.460;2023-02-28T10:10:46;13.98;;;7.88;;
12869;SDS011;6503;48.572;13.460;2023-02-28T10:13:56;17.70;;;9.63;;
12869;SDS011;6503;48.572;13.460;2023-02-28T10:16:31;14.45;;;8.95;;
12869;SDS011;6503;48.572;13.460;2023-02-28T10:19:03;13.73;;;8.85;;
12869;SDS011;6503;48.572;13.460;2023-02-28T10:21:39;19.08;;;11.40;;
12869;SDS011;6503;48.572;13.460;2023-02-28T10:24:13;14.43;;;8.65;;
12869;SDS011;6503;48.572;13.460;2023-02-28T10:26:50;17.92;;;10.05;;
12869;SDS011;6503;48.572;13.460;2023-02-28T10:29:25;19.02;;;10.32;;
12869;SDS011;6503;48.572;13.460;2023-02-28T10:31:54;14.73;;;9.45;;
12869;SDS011;6503;48.572;13.460;2023-02-28T10:34:28;16.38;;;9.32;;
12869;SDS011;6503;48.572;13.460;2023-02-28T10:37:57;13.15;;;8.60;;
12869;SDS011;6503;48.572;13.460;2023-02-28T10:41:03;16.80;;;10.90;;
12869;SDS011;6503;48.572;13.460;2023-02-28T10:43:33;15.43;;;9.32;;
12869;SDS011;6503;48.572;13.460;2023-02-28T10:46:13;15.65;;;10.18;;
12869;SDS011;6503;48.572;13.460;2023-02-28T10:48:59;17.30;;;10.80;;
12869;SDS011;6503;48.572;13.460;2023-02-28T10:51:37;19.65;;;12.70;;
12869;SDS011;6503;48.572;13.460;2023-02-28T10:54:06;15.98;;;9.40;;
12869;SDS011;6503;48.572;13.460;2023-02-28T10:56:43;14.60;;;8.82;;
12869;SDS011;6503;48.572;13.460;2023-02-28T10:59:31;15.70;;;9.45;;
12869;SDS011;6503;48.572;13.460;2023-02-28T11:02:00;17.98;;;10.45;;
12869;SDS011;6503;48.572;13.460;2023-02-28T11:04:35;17.00;;;10.32;;
12869;SDS011;6503;48.572;13.460;2023-02-28T11:07:10;16.45;;;10.18;;
12869;SDS011;6503;48.572;13.460;2023-02-28T11:09:51;18.85;;;10.27;;
12869;SDS011;6503;48.572;13.460;2023-02-28T11:12:23;17.77;;;11.18;;
12869;SDS011;6503;48.572;13.460;2023-02-28T11:14:54;15.63;;;10.10;;
12869;SDS011;6503;48.572;13.460;2023-02-28T11:20:00;14.32;;;10.07;;
12869;SDS011;6503;48.572;13.460;2023-02-28T11:22:42;14.82;;;10.00;;
12869;SDS011;6503;48.572;13.460;2023-02-28T11:25:16;14.90;;;9.88;;
12869;SDS011;6503;48.572;13.460;2023-02-28T11:27:50;17.45;;;10.40;;
12869;SDS011;6503;48.572;13.460;2023-02-28T11:30:23;15.57;;;10.07;;
12869;SDS011;6503;48.572;13.460;2023-02-28T11:32:58;14.95;;;9.88;;
12869;SDS011;6503;48.572;13.460;2023-02-28T11:35:40;15.23;;;10.05;;
12869;SDS011;6503;48.572;13.460;2023-02-28T11:38:12;20.65;;;11.27;;
12869;SDS011;6503;48.572;13.460;2023-02-28T11:40:43;17.80;;;10.98;;
12869;SDS011;6503;48.572;13.460;2023-02-28T11:43:22;15.45;;;9.93;;
12869;SDS011;6503;48.572;13.460;2023-02-28T11:46:07;17.42;;;10.40;;
12869;SDS011;6503;48.572;13.460;2023-02-28T11:48:54;21.33;;;10.68;;
12869;SDS011;6503;48.572;13.460;2023-02-28T11:51:41;17.73;;;10.65;;
12869;SDS011;6503;48.572;13.460;2023-02-28T11:54:35;17.10;;;10.68;;
12869;SDS011;6503;48.572;13.460;2023-02-28T11:57:19;17.20;;;10.15;;
12869;SDS011;6503;48.572;13.460;2023-02-28T12:00:11;17.35;;;10.32;;
12869;SDS011;6503;48.572;13.460;2023-02-28T12:02:59;19.95;;;12.38;;
12869;SDS011;6503;48.572;13.460;2023-02-28T12:05:36;15.70;;;9.23;;
12869;SDS011;6503;48.572;13.460;2023-02-28T12:08:15;16.35;;;11.23;;
12869;SDS011;6503;48.572;13.460;2023-02-28T12:10:57;18.45;;;11.02;;
12869;SDS011;6503;48.572;13.460;2023-02-28T12:13:41;18.63;;;11.43;;
12869;SDS011;6503;48.572;13.460;2023-02-28T12:19:19;16.10;;;10.35;;
12869;SDS011;6503;48.572;13.460;2023-02-28T12:21:56;18.95;;;10.57;;
12869;SDS011;6503;48.572;13.460;2023-02-28T12:24:41;17.83;;;10.70;;
12869;SDS011;6503;48.572;13.460;2023-02-28T12:27:29;16.05;;;9.55;;
12869;SDS011;6503;48.572;13.460;2023-02-28T12:30:08;16.45;;;10.18;;
12869;SDS011;6503;48.572;13.460;2023-02-28T12:32:44;15.95;;;9.95;;
12869;SDS011;6503;48.572;13.460;2023-02-28T12:35:16;17.30;;;11.00;;
12869;SDS011;6503;48.572;13.460;2023-02-28T12:37:50;15.15;;;10.60;;
12869;SDS011;6503;48.572;13.460;2023-02-28T12:40:23;15.63;;;10.50;;
12869;SDS011;6503;48.572;13.460;2023-02-28T12:49:36;15.55;;;10.35;;
12869;SDS011;6503;48.572;13.460;2023-02-28T12:52:44;15.23;;;10.25;;
12869;SDS011;6503;48.572;13.460;2023-02-28T13:09:03;15.18;;;10.45;;
12869;SDS011;6503;48.572;13.460;2023-02-28T13:11:38;15.88;;;9.68;;
12869;SDS011;6503;48.572;13.460;2023-02-28T13:14:22;14.90;;;10.25;;
12869;SDS011;6503;48.572;13.460;2023-02-28T13:16:55;18.92;;;10.98;;
12869;SDS011;6503;48.572;13.460;2023-02-28T13:19:28;15.63;;;10.15;;
12869;SDS011;6503;48.572;13.460;2023-02-28T13:21:58;14.93;;;11.48;;
12869;SDS011;6503;48.572;13.460;2023-02-28T13:24:40;15.73;;;10.80;;
12869;SDS011;6503;48.572;13.460;2023-02-28T13:36:29;20.83;;;13.00;;
12869;SDS011;6503;48.572;13.460;2023-02-28T13:38:59;14.48;;;10.07;;
12869;SDS011;6503;48.572;13.460;2023-02-28T13:41:45;17.50;;;10.35;;
12869;SDS011;6503;48.572;13.460;2023-02-28T13:44:16;16.73;;;10.55;;
12869;SDS011;6503;48.572;13.460;2023-02-28T13:50:14;16.25;;;11.07;;
12869;SDS011;6503;48.572;13.460;2023-02-28T13:52:48;15.82;;;10.75;;
12869;SDS011;6503;48.572;13.460;2023-02-28T13:55:30;18.30;;;10.88;;
12869;SDS011;6503;48.572;13.460;2023-02-28T13:58:09;17.55;;;11.13;;
12869;SDS011;6503;48.572;13.460;2023-02-28T14:01:56;17.27;;;12.10;;
12869;SDS011;6503;48.572;13.460;2023-02-28T14:05:04;18.42;;;10.38;;
12869;SDS011;6503;48.572;13.460;2023-02-28T14:08:26;17.02;;;10.68;;
12869;SDS011;6503;48.572;13.460;2023-02-28T14:17:12;17.65;;;11.35;;
12869;SDS011;6503;48.572;13.460;2023-02-28T14:20:52;20.02;;;11.20;;
12869;SDS011;6503;48.572;13.460;2023-02-28T14:23:31;15.85;;;10.85;;
12869;SDS011;6503;48.572;13.460;2023-02-28T14:26:07;17.13;;;10.88;;
12869;SDS011;6503;48.572;13.460;2023-02-28T14:31:40;15.82;;;10.88;;
12869;SDS011;6503;48.572;13.460;2023-02-28T14:34:26;23.17;;;13.10;;
12869;SDS011;6503;48.572;13.460;2023-02-28T14:37:04;19.70;;;11.10;;
12869;SDS011;6503;48.572;13.460;2023-02-28T14:39:33;17.15;;;11.48;;
12869;SDS011;6503;48.572;13.460;2023-02-28T14:42:02;18.27;;;11.13;;
12869;SDS011;6503;48.572;13.460;2023-02-28T14:44:31;17.10;;;10.32;;
12869;SDS011;6503;48.572;13.460;2023-02-28T14:47:02;21.17;;;11.18;;
12869;SDS011;6503;48.572;13.460;2023-02-28T14:52:01;18.02;;;10.68;;
12869;SDS011;6503;48.572;13.460;2023-02-28T14:54:36;19.00;;;11.48;;
12869;SDS011;6503;48.572;13.460;2023-02-28T14:57:05;16.00;;;10.45;;
12869;SDS011;6503;48.572;13.460;2023-02-28T14:59:35;20.23;;;11.88;;
12869;SDS011;6503;48.572;13.460;2023-02-28T15:02:15;18.30;;;12.03;;
12869;SDS011;6503;48.572;13.460;2023-02-28T15:04:51;18.27;;;11.52;;
12869;SDS011;6503;48.572;13.460;2023-02-28T15:07:21;17.27;;;11.52;;
12869;SDS011;6503;48.572;13.460;2023-02-28T15:10:06;19.70;;;13.63;;
12869;SDS011;6503;48.572;13.460;2023-02-28T15:12:36;17.42;;;11.27;;
12869;SDS011;6503;48.572;13.460;2023-02-28T15:15:16;17.58;;;11.52;;
12869;SDS011;6503;48.572;13.460;2023-02-28T15:17:49;18.33;;;12.02;;
12869;SDS011;6503;48.572;13.460;2023-02-28T15:20:24;19.17;;;12.25;;
12869;SDS011;6503;48.572;13.460;2023-02-28T15:22:54;16.33;;;10.93;;
12869;SDS011;6503;48.572;13.460;2023-02-28T15:25:23;16.10;;;10.90;;
12869;SDS011;6503;48.572;13.460;2023-02-28T15:27:52;20.30;;;11.95;;
12869;SDS011;6503;48.572;13.460;2023-02-28T15:30:23;18.17;;;10.52;;
12869;SDS011;6503;48.572;13.460;2023-02-28T15:33:04;16.88;;;11.13;;
12869;SDS011;6503;48.572;13.460;2023-02-28T15:35:36;20.02;;;11.68;;
12869;SDS011;6503;48.572;13.460;2023-02-28T15:38:13;18.05;;;11.73;;
12869;SDS011;6503;48.572;13.460;2023-02-28T15:40:49;22.15;;;12.48;;
12869;SDS011;6503;48.572;13.460;2023-02-28T15:43:24;15.27;;;10.82;;
12869;SDS011;6503;48.572;13.460;2023-02-28T15:45:55;16.40;;;11.07;;
12869;SDS011;6503;48.572;13.460;2023-02-28T15:48:25;16.63;;;10.70;;
12869;SDS011;6503;48.572;13.460;2023-02-28T15:53:25;24.55;;;10.38;;
12869;SDS011;6503;48.572;13.460;2023-02-28T15:55:58;17.75;;;10.55;;
12869;SDS011;6503;48.572;13.460;2023-02-28T15:58:28;18.83;;;11.57;;
12869;SDS011;6503;48.572;13.460;2023-02-28T16:03:51;19.40;;;11.52;;
12869;SDS011;6503;48.572;13.460;2023-02-28T16:09:02;18.35;;;10.77;;
12869;SDS011;6503;48.572;13.460;2023-02-28T16:11:30;19.30;;;10.73;;
12869;SDS011;6503;48.572;13.460;2023-02-28T16:16:31;15.63;;;9.77;;
12869;SDS011;6503;48.572;13.460;2023-02-28T16:19:00;18.83;;;11.35;;
12869;SDS011;6503;48.572;13.460;2023-02-28T16:21:28;19.40;;;11.25;;
12869;SDS011;6503;48.572;13.460;2023-02-28T16:23:58;17.42;;;11.23;;
12869;SDS011;6503;48.572;13.460;2023-02-28T16:26:36;16.58;;;10.43;;
12869;SDS011;6503;48.572;13.460;2023-02-28T16:29:06;17.23;;;11.02;;
12869;SDS011;6503;48.572;13.460;2023-02-28T16:31:37;17.50;;;10.82;;
12869;SDS011;6503;48.572;13.460;2023-02-28T16:34:05;16.52;;;10.73;;